createdAt,value
2023-05-11T00:00:37.991Z,97306.00
2023-05-11T00:03:04.370Z,97316.00
2023-05-11T00:05:30.741Z,97308.00
2023-05-11T00:07:57.003Z,97294.00
2023-05-11T00:10:23.314Z,97300.00
2023-05-11T00:12:49.779Z,97305.00
2023-05-11T00:15:16.055Z,97310.00
2023-05-11T00:17:42.516Z,97296.00
2023-05-11T00:20:09.375Z,97303.00
2023-05-11T00:22:35.863Z,97308.00
2023-05-11T00:25:02.435Z,97298.00
2023-05-11T00:27:28.707Z,97295.00
2023-05-11T00:29:55.039Z,97284.00
2023-05-11T00:32:21.409Z,97300.00
2023-05-11T00:34:47.662Z,97290.00
2023-05-11T00:37:13.843Z,97292.00
2023-05-11T00:39:40.847Z,97295.00
2023-05-11T00:42:07.457Z,97302.00
2023-05-11T00:44:33.783Z,97298.00
2023-05-11T00:47:00.228Z,97295.00
2023-05-11T00:49:27.040Z,97286.00
2023-05-11T00:51:53.312Z,97283.00
2023-05-11T00:54:19.810Z,97298.00
2023-05-11T00:56:47.502Z,97292.00
2023-05-11T00:59:14.043Z,97292.00
2023-05-11T01:01:40.365Z,97286.00
2023-05-11T01:04:07.060Z,97286.00
2023-05-11T01:07:05.629Z,97296.00
2023-05-11T01:09:47.405Z,97293.00
2023-05-11T01:12:59.035Z,97294.00
2023-05-11T01:15:51.581Z,97294.00
2023-05-11T01:18:54.557Z,97282.00
2023-05-11T01:21:21.155Z,97288.00
2023-05-11T01:24:31.306Z,97274.00
2023-05-11T01:27:31.811Z,97307.00
2023-05-11T01:30:27.062Z,97308.00
2023-05-11T01:33:04.877Z,97296.00
2023-05-11T01:35:35.372Z,97295.00
2023-05-11T01:38:07.808Z,97290.00
2023-05-11T01:40:38.755Z,97291.00
2023-05-11T01:43:11.940Z,97285.00
2023-05-11T01:45:45.746Z,97291.00
2023-05-11T01:48:19.096Z,97295.00
2023-05-11T01:50:47.826Z,97288.00
2023-05-11T01:53:16.802Z,97289.00
2023-05-11T01:55:45.796Z,97307.00
2023-05-11T01:58:15.707Z,97297.00
2023-05-11T02:00:45.407Z,97309.00
2023-05-11T02:03:14.698Z,97298.00
2023-05-11T02:05:43.538Z,97307.00
2023-05-11T02:08:13.611Z,97300.00
2023-05-11T02:10:41.800Z,97291.00
2023-05-11T02:13:09.668Z,97303.00
2023-05-11T02:15:41.370Z,97304.00
2023-05-11T02:18:14.024Z,97301.00
2023-05-11T02:20:44.415Z,97304.00
2023-05-11T02:23:12.612Z,97286.00
2023-05-11T02:25:40.894Z,97303.00
2023-05-11T02:28:07.989Z,97295.00
2023-05-11T02:30:56.126Z,97292.00
2023-05-11T02:33:38.476Z,97296.00
2023-05-11T02:36:07.441Z,97299.00
2023-05-11T02:38:37.751Z,97291.00
2023-05-11T02:41:15.665Z,97291.00
2023-05-11T02:43:51.323Z,97294.00
2023-05-11T02:46:25.513Z,97307.00
2023-05-11T02:49:00.110Z,97290.00
2023-05-11T02:51:35.161Z,97298.00
2023-05-11T02:54:06.340Z,97291.00
2023-05-11T02:56:37.262Z,97289.00
2023-05-11T02:59:03.771Z,97295.00
2023-05-11T03:01:30.864Z,97293.00
2023-05-11T03:03:57.788Z,97296.00
2023-05-11T03:06:26.201Z,97302.00
2023-05-11T03:08:52.502Z,97295.00
2023-05-11T03:11:20.704Z,97300.00
2023-05-11T03:13:49.286Z,97290.00
2023-05-11T03:16:20.967Z,97285.00
2023-05-11T03:18:49.695Z,97298.00
2023-05-11T03:21:20.593Z,97294.00
2023-05-11T03:23:48.611Z,97295.00
2023-05-11T03:26:18.349Z,97298.00
2023-05-11T03:28:47.017Z,97298.00
2023-05-11T03:31:13.838Z,97289.00
2023-05-11T03:33:40.418Z,97292.00
2023-05-11T03:36:10.281Z,97294.00
2023-05-11T03:38:38.719Z,97294.00
2023-05-11T03:41:06.804Z,97278.00
2023-05-11T03:43:38.049Z,97280.00
2023-05-11T03:46:05.505Z,97286.00
2023-05-11T03:48:32.474Z,97293.00
2023-05-11T03:50:59.519Z,97296.00
2023-05-11T03:53:26.164Z,97285.00
2023-05-11T03:55:52.448Z,97282.00
2023-05-11T03:58:19.354Z,97290.00
2023-05-11T04:00:46.169Z,97288.00
2023-05-11T04:03:13.198Z,97267.00
2023-05-11T04:05:40.611Z,97273.00
2023-05-11T04:08:10.366Z,97277.00
2023-05-11T04:10:37.619Z,97284.00
2023-05-11T04:13:04.048Z,97295.00
2023-05-11T04:15:30.240Z,97273.00
2023-05-11T04:17:56.564Z,97270.00
2023-05-11T04:20:22.837Z,97277.00
2023-05-11T04:22:49.092Z,97274.00
2023-05-11T04:25:15.336Z,97282.00
2023-05-11T04:27:41.602Z,97281.00
2023-05-11T04:30:08.580Z,97278.00
2023-05-11T04:32:34.933Z,97296.00
2023-05-11T04:35:02.020Z,97290.00
2023-05-11T04:37:32.011Z,97298.00
2023-05-11T04:39:59.010Z,97285.00
2023-05-11T04:42:25.346Z,97300.00
2023-05-11T04:44:54.416Z,97288.00
2023-05-11T04:47:20.992Z,97289.00
2023-05-11T04:49:48.177Z,97295.00
2023-05-11T04:52:14.553Z,97293.00
2023-05-11T04:54:44.067Z,97301.00
2023-05-11T04:57:10.594Z,97296.00
2023-05-11T04:59:36.948Z,97299.00
2023-05-11T05:02:03.483Z,97308.00
2023-05-11T05:04:29.686Z,97304.00
2023-05-11T05:06:55.904Z,97309.00
2023-05-11T05:09:22.227Z,97318.00
2023-05-11T05:11:48.584Z,97330.00
2023-05-11T05:14:14.894Z,97323.00
2023-05-11T05:16:41.087Z,97325.00
2023-05-11T05:19:09.080Z,97328.00
2023-05-11T05:21:35.429Z,97312.00
2023-05-11T05:24:03.552Z,97317.00
2023-05-11T05:26:30.327Z,97323.00
2023-05-11T05:28:57.380Z,97344.00
2023-05-11T05:31:24.651Z,97323.00
2023-05-11T05:33:51.037Z,97324.00
2023-05-11T05:36:17.633Z,97340.00
2023-05-11T05:38:43.980Z,97334.00
2023-05-11T05:41:10.620Z,97345.00
2023-05-11T05:43:39.389Z,97336.00
2023-05-11T05:46:05.969Z,97340.00
2023-05-11T05:48:32.219Z,97338.00
2023-05-11T05:50:59.530Z,97341.00
2023-05-11T05:53:25.762Z,97347.00
2023-05-11T05:55:52.024Z,97347.00
2023-05-11T05:58:18.532Z,97351.00
2023-05-11T06:00:45.311Z,97347.00
2023-05-11T06:03:11.829Z,97359.00
2023-05-11T06:05:38.316Z,97358.00
2023-05-11T06:08:10.569Z,97351.00
2023-05-11T06:10:38.819Z,97362.00
2023-05-11T06:13:07.613Z,97347.00
2023-05-11T06:15:34.072Z,97365.00
2023-05-11T06:18:07.665Z,97363.00
2023-05-11T06:20:34.530Z,97349.00
2023-05-11T06:23:00.939Z,97362.00
2023-05-11T06:25:27.155Z,97348.00
2023-05-11T06:27:53.608Z,97358.00
2023-05-11T06:30:20.635Z,97358.00
2023-05-11T06:32:48.503Z,97378.00
2023-05-11T06:35:17.567Z,97360.00
2023-05-11T06:37:44.606Z,97360.00
2023-05-11T06:40:11.029Z,97367.00
2023-05-11T06:42:37.274Z,97358.00
2023-05-11T06:45:08.167Z,97373.00
2023-05-11T06:47:34.720Z,97362.00
2023-05-11T06:50:01.157Z,97382.00
2023-05-11T06:52:27.502Z,97364.00
2023-05-11T06:54:53.714Z,97366.00
2023-05-11T06:57:19.959Z,97363.00
2023-05-11T06:59:46.109Z,97357.00
2023-05-11T07:02:12.474Z,97363.00
2023-05-11T07:04:38.970Z,97358.00
2023-05-11T07:07:05.200Z,97354.00
2023-05-11T07:09:31.525Z,97357.00
2023-05-11T07:11:57.717Z,97354.00
2023-05-11T07:14:23.957Z,97349.00
2023-05-11T07:16:52.088Z,97363.00
2023-05-11T07:19:18.331Z,97362.00
2023-05-11T07:21:44.540Z,97359.00
2023-05-11T07:24:10.767Z,97366.00
2023-05-11T07:26:36.939Z,97368.00
2023-05-11T07:29:03.434Z,97367.00
2023-05-11T07:31:29.783Z,97365.00
2023-05-11T07:33:56.424Z,97373.00
2023-05-11T07:36:22.621Z,97361.00
2023-05-11T07:38:48.849Z,97356.00
2023-05-11T07:41:15.222Z,97365.00
2023-05-11T07:43:41.830Z,97367.00
2023-05-11T07:46:08.090Z,97377.00
2023-05-11T07:48:34.298Z,97374.00
2023-05-11T07:51:00.864Z,97364.00
2023-05-11T07:53:27.415Z,97359.00
2023-05-11T07:55:53.667Z,97367.00
2023-05-11T07:58:20.007Z,97376.00
2023-05-11T08:00:46.164Z,97373.00
2023-05-11T08:03:12.435Z,97361.00
2023-05-11T08:05:38.798Z,97386.00
2023-05-11T08:08:05.178Z,97377.00
2023-05-11T08:10:31.492Z,97385.00
2023-05-11T08:12:57.776Z,97366.00
2023-05-11T08:15:24.206Z,97378.00
2023-05-11T08:17:50.429Z,97386.00
2023-05-11T08:20:16.718Z,97375.00
2023-05-11T08:22:44.630Z,97379.00
2023-05-11T08:25:10.984Z,97383.00
2023-05-11T08:27:37.237Z,97384.00
2023-05-11T08:30:04.213Z,97381.00
2023-05-11T08:32:30.711Z,97389.00
2023-05-11T08:34:57.362Z,97384.00
2023-05-11T08:37:23.610Z,97379.00
2023-05-11T08:39:50.818Z,97362.00
2023-05-11T08:42:18.253Z,97370.00
2023-05-11T08:44:45.543Z,97375.00
2023-05-11T08:49:41.901Z,97384.00
2023-05-11T08:52:10.502Z,97383.00
2023-05-11T08:54:36.676Z,97388.00
2023-05-11T08:57:03.862Z,97385.00
2023-05-11T08:59:33.217Z,97387.00
2023-05-11T09:02:01.508Z,97384.00
2023-05-11T09:04:28.260Z,97387.00
2023-05-11T09:06:55.626Z,97386.00
2023-05-11T09:09:22.302Z,97390.00
2023-05-11T09:11:49.821Z,97385.00
2023-05-11T09:14:16.198Z,97399.00
2023-05-11T09:16:42.777Z,97386.00
2023-05-11T09:19:17.522Z,97393.00
2023-05-11T09:21:43.892Z,97389.00
2023-05-11T09:24:12.401Z,97381.00
2023-05-11T09:26:39.050Z,97395.00
2023-05-11T09:29:05.528Z,97388.00
2023-05-11T09:31:46.774Z,97401.00
2023-05-11T09:34:20.216Z,97391.00
2023-05-11T09:36:52.497Z,97399.00
2023-05-11T09:39:39.967Z,97396.00
2023-05-11T09:42:18.218Z,97394.00
2023-05-11T09:44:46.795Z,97383.00
2023-05-11T09:47:16.900Z,97389.00
2023-05-11T09:49:45.888Z,97403.00
2023-05-11T09:52:17.841Z,97387.00
2023-05-11T09:54:51.026Z,97383.00
2023-05-11T09:57:30.501Z,97392.00
2023-05-11T09:59:59.006Z,97376.00
2023-05-11T10:02:33.684Z,97383.00
2023-05-11T10:05:09.867Z,97388.00
2023-05-11T10:07:36.709Z,97377.00
2023-05-11T10:10:09.127Z,97381.00
2023-05-11T10:12:38.645Z,97373.00
2023-05-11T10:15:10.343Z,97380.00
2023-05-11T10:17:37.370Z,97375.00
2023-05-11T10:20:06.069Z,97376.00
2023-05-11T10:22:32.971Z,97370.00
2023-05-11T10:24:59.526Z,97366.00
2023-05-11T10:27:28.021Z,97366.00
2023-05-11T10:29:55.161Z,97353.00
2023-05-11T10:32:21.878Z,97350.00
2023-05-11T10:34:49.787Z,97366.00
2023-05-11T10:37:16.962Z,97360.00
2023-05-11T10:39:47.199Z,97352.00
2023-05-11T10:43:03.744Z,97365.00
2023-05-11T10:45:59.136Z,97348.00
2023-05-11T10:48:28.344Z,97348.00
2023-05-11T10:51:32.777Z,97357.00
2023-05-11T10:54:28.696Z,97346.00
2023-05-11T10:57:14.724Z,97347.00
2023-05-11T11:00:52.399Z,97330.00
2023-05-11T11:03:19.038Z,97326.00
2023-05-11T11:05:45.802Z,97336.00
2023-05-11T11:08:12.111Z,97335.00
2023-05-11T11:10:44.744Z,97323.00
2023-05-11T11:13:13.738Z,97329.00
2023-05-11T11:15:55.370Z,97325.00
2023-05-11T11:18:32.723Z,97331.00
2023-05-11T11:21:00.325Z,97322.00
2023-05-11T11:23:50.510Z,97327.00
2023-05-11T11:26:48.627Z,97320.00
2023-05-11T11:29:15.125Z,97322.00
2023-05-11T11:31:41.880Z,97333.00
2023-05-11T11:34:26.585Z,97322.00
2023-05-11T11:36:57.732Z,97327.00
2023-05-11T11:39:49.548Z,97326.00
2023-05-11T11:42:19.031Z,97329.00
2023-05-11T11:44:45.896Z,97315.00
2023-05-11T11:47:21.323Z,97318.00
2023-05-11T11:49:54.202Z,97320.00
2023-05-11T11:52:26.380Z,97323.00
2023-05-11T11:54:53.397Z,97323.00
2023-05-11T11:57:31.906Z,97313.00
2023-05-11T12:00:10.011Z,97314.00
2023-05-11T12:02:46.247Z,97319.00
2023-05-11T12:05:19.155Z,97316.00
2023-05-11T12:07:48.644Z,97310.00
2023-05-11T12:10:17.537Z,97297.00
2023-05-11T12:12:57.960Z,97307.00
2023-05-11T12:15:33.803Z,97306.00
2023-05-11T12:18:02.077Z,97311.00
2023-05-11T12:20:28.579Z,97297.00
2023-05-11T12:22:55.847Z,97309.00
2023-05-11T12:25:22.912Z,97300.00
2023-05-11T12:27:54.453Z,97308.00
2023-05-11T12:30:26.144Z,97306.00
2023-05-11T12:35:32.523Z,97289.00
2023-05-11T12:38:04.162Z,97299.00
2023-05-11T12:40:31.005Z,97306.00
2023-05-11T12:42:59.326Z,97291.00
2023-05-11T12:45:27.262Z,97287.00
2023-05-11T12:47:55.850Z,97300.00
2023-05-11T12:50:22.873Z,97295.00
2023-05-11T12:52:49.704Z,97300.00
2023-05-11T12:55:29.967Z,97288.00
2023-05-11T12:58:15.274Z,97293.00
2023-05-11T13:00:56.797Z,97282.00
2023-05-11T13:03:27.892Z,97288.00
2023-05-11T13:06:23.882Z,97291.00
2023-05-11T13:08:50.851Z,97305.00
2023-05-11T13:11:21.759Z,97305.00
2023-05-11T13:13:49.077Z,97298.00
2023-05-11T13:16:29.149Z,97297.00
2023-05-11T13:19:04.612Z,97298.00
2023-05-11T13:21:32.495Z,97295.00
2023-05-11T13:23:59.867Z,97305.00
2023-05-11T13:26:29.769Z,97311.00
2023-05-11T13:29:09.293Z,97306.00
2023-05-11T13:31:48.769Z,97305.00
2023-05-11T13:34:15.843Z,97302.00
2023-05-11T13:36:42.516Z,97292.00
2023-05-11T13:39:09.161Z,97305.00
2023-05-11T13:41:35.798Z,97303.00
2023-05-11T13:44:02.643Z,97303.00
2023-05-11T13:46:29.005Z,97313.00
2023-05-11T13:48:55.777Z,97302.00
2023-05-11T13:51:23.072Z,97316.00
2023-05-11T13:53:49.349Z,97320.00
2023-05-11T13:56:18.692Z,97318.00
2023-05-11T13:58:45.453Z,97310.00
2023-05-11T14:01:11.859Z,97328.00
2023-05-11T14:03:39.142Z,97321.00
2023-05-11T14:06:05.730Z,97333.00
2023-05-11T14:14:17.486Z,97323.00
2023-05-11T14:16:44.191Z,97321.00
2023-05-11T14:19:10.738Z,97329.00
2023-05-11T14:21:37.343Z,97314.00
2023-05-11T14:24:11.636Z,97313.00
2023-05-11T14:26:39.753Z,97324.00
2023-05-11T14:29:08.865Z,97331.00
2023-05-11T14:31:36.025Z,97340.00
2023-05-11T14:34:03.951Z,97319.00
2023-05-11T14:36:31.520Z,97338.00
2023-05-11T14:38:57.796Z,97339.00
2023-05-11T14:41:24.779Z,97332.00
2023-05-11T14:43:51.002Z,97325.00
2023-05-11T14:46:17.410Z,97337.00
2023-05-11T14:48:43.796Z,97337.00
2023-05-11T14:51:10.134Z,97310.00
2023-05-11T14:53:36.312Z,97335.00
2023-05-11T14:56:02.902Z,97330.00
2023-05-11T14:58:29.159Z,97336.00
2023-05-11T15:00:55.365Z,97321.00
2023-05-11T15:03:21.860Z,97335.00
2023-05-11T15:05:48.124Z,97325.00
2023-05-11T15:08:28.469Z,97319.00
2023-05-11T15:10:55.565Z,97324.00
2023-05-11T15:13:22.526Z,97318.00
2023-05-11T15:15:48.775Z,97317.00
2023-05-11T15:18:15.802Z,97327.00
2023-05-11T15:20:43.306Z,97330.00
2023-05-11T15:23:10.734Z,97332.00
2023-05-11T15:25:37.023Z,97327.00
2023-05-11T15:28:03.285Z,97326.00
2023-05-11T15:30:31.994Z,97335.00
2023-05-11T15:32:58.880Z,97327.00
2023-05-11T15:35:25.140Z,97346.00
2023-05-11T15:37:51.324Z,97322.00
2023-05-11T15:40:17.495Z,97325.00
2023-05-11T15:42:43.652Z,97307.00
2023-05-11T15:45:10.212Z,97316.00
2023-05-11T15:47:37.167Z,97314.00
2023-05-11T15:50:03.732Z,97332.00
2023-05-11T15:52:31.079Z,97332.00
2023-05-11T15:54:59.429Z,97334.00
2023-05-11T15:57:25.786Z,97318.00
2023-05-11T15:59:52.427Z,97319.00
2023-05-11T16:02:19.954Z,97331.00
2023-05-11T16:04:46.133Z,97332.00
2023-05-11T16:07:12.370Z,97324.00
2023-05-11T16:09:38.581Z,97336.00
2023-05-11T16:12:06.607Z,97327.00
2023-05-11T16:14:32.922Z,97301.00
2023-05-11T16:17:00.225Z,97318.00
2023-05-11T16:19:26.823Z,97322.00
2023-05-11T16:21:53.000Z,97321.00
2023-05-11T16:24:19.177Z,97317.00
2023-05-11T16:26:45.470Z,97301.00
2023-05-11T16:29:11.716Z,97296.00
2023-05-11T16:31:38.049Z,97317.00
2023-05-11T16:34:04.487Z,97319.00
2023-05-11T16:36:30.644Z,97306.00
2023-05-11T16:38:57.067Z,97311.00
2023-05-11T16:41:25.114Z,97314.00
2023-05-11T16:43:51.358Z,97293.00
2023-05-11T16:46:17.663Z,97291.00
2023-05-11T16:48:43.906Z,97301.00
2023-05-11T16:51:10.107Z,97300.00
2023-05-11T16:53:36.548Z,97304.00
2023-05-11T16:56:02.949Z,97307.00
2023-05-11T16:58:30.260Z,97306.00
2023-05-11T17:00:59.454Z,97291.00
2023-05-11T17:03:26.258Z,97300.00
2023-05-11T17:05:52.505Z,97298.00
2023-05-11T17:08:18.817Z,97309.00
2023-05-11T17:10:45.455Z,97284.00
2023-05-11T17:13:11.597Z,97299.00
2023-05-11T17:15:37.736Z,97291.00
2023-05-11T17:18:03.981Z,97301.00
2023-05-11T17:20:30.286Z,97296.00
2023-05-11T17:22:56.437Z,97292.00
2023-05-11T17:25:22.633Z,97305.00
2023-05-11T17:27:48.794Z,97273.00
2023-05-11T17:30:15.339Z,97278.00
2023-05-11T17:32:41.573Z,97274.00
2023-05-11T17:35:08.628Z,97293.00
2023-05-11T17:37:34.889Z,97308.00
2023-05-11T17:40:01.423Z,97302.00
2023-05-11T17:42:27.845Z,97289.00
2023-05-11T17:44:55.101Z,97302.00
2023-05-11T17:47:21.536Z,97296.00
2023-05-11T17:49:48.436Z,97292.00
2023-05-11T17:52:15.349Z,97326.00
2023-05-11T17:54:41.589Z,97312.00
2023-05-11T17:57:07.921Z,97313.00
2023-05-11T17:59:34.334Z,97313.00
2023-05-11T18:02:01.016Z,97327.00
2023-05-11T18:04:27.504Z,97316.00
2023-05-11T18:06:53.901Z,97303.00
2023-05-11T18:09:20.079Z,97311.00
2023-05-11T18:11:46.242Z,97310.00
2023-05-11T18:14:12.387Z,97309.00
2023-05-11T18:16:38.679Z,97283.00
2023-05-11T18:19:05.107Z,97309.00
2023-05-11T18:21:31.330Z,97295.00
2023-05-11T18:23:57.500Z,97325.00
2023-05-11T18:26:25.614Z,97332.00
2023-05-11T18:28:54.192Z,97315.00
2023-05-11T18:31:21.406Z,97307.00
2023-05-11T18:33:48.372Z,97330.00
2023-05-11T18:36:15.298Z,97293.00
2023-05-11T18:38:42.624Z,97306.00
2023-05-11T18:41:18.033Z,97288.00
2023-05-11T18:43:44.595Z,97320.00
2023-05-11T18:46:10.968Z,97320.00
2023-05-11T18:48:38.273Z,97317.00
2023-05-11T18:51:04.774Z,97309.00
2023-05-11T18:53:31.570Z,97325.00
2023-05-11T18:55:57.792Z,97322.00
2023-05-11T18:58:23.974Z,97318.00
2023-05-11T19:00:50.878Z,97313.00
2023-05-11T19:03:19.826Z,97334.00
2023-05-11T19:05:47.848Z,97336.00
2023-05-11T19:08:14.252Z,97344.00
2023-05-11T19:10:44.215Z,97329.00
2023-05-11T19:13:11.861Z,97324.00
2023-05-11T19:15:38.032Z,97320.00
2023-05-11T19:18:04.658Z,97321.00
2023-05-11T19:20:30.874Z,97339.00
2023-05-11T19:22:57.319Z,97341.00
2023-05-11T19:25:23.481Z,97340.00
2023-05-11T19:27:49.982Z,97323.00
2023-05-11T19:30:16.127Z,97354.00
2023-05-11T19:32:44.389Z,97310.00
2023-05-11T19:35:11.975Z,97328.00
2023-05-11T19:37:38.123Z,97328.00
2023-05-11T19:40:26.662Z,97345.00
2023-05-11T19:42:51.741Z,97345.00
2023-05-11T19:45:18.037Z,97352.00
2023-05-11T19:47:44.265Z,97359.00
2023-05-11T19:50:10.513Z,97344.00
2023-05-11T19:52:37.911Z,97345.00
2023-05-11T19:55:06.205Z,97337.00
2023-05-11T19:57:36.331Z,97327.00
2023-05-11T20:00:07.271Z,97339.00
2023-05-11T20:02:35.043Z,97347.00
2023-05-11T20:05:03.330Z,97356.00
2023-05-11T20:07:31.149Z,97366.00
2023-05-11T20:09:58.876Z,97340.00
2023-05-11T20:12:27.449Z,97325.00
2023-05-11T20:14:53.743Z,97344.00
2023-05-11T20:17:20.765Z,97342.00
2023-05-11T20:19:47.258Z,97356.00
2023-05-11T20:22:13.421Z,97340.00
2023-05-11T20:24:39.801Z,97358.00
2023-05-11T20:27:08.763Z,97363.00
2023-05-11T20:29:35.702Z,97354.00
2023-05-11T20:32:02.530Z,97346.00
2023-05-11T20:34:28.793Z,97358.00
2023-05-11T20:36:55.136Z,97354.00
2023-05-11T20:39:21.347Z,97336.00
2023-05-11T20:41:49.242Z,97345.00
2023-05-11T20:44:16.804Z,97357.00
2023-05-11T20:46:42.995Z,97332.00
2023-05-11T20:49:16.749Z,97337.00
2023-05-11T20:51:51.340Z,97343.00
2023-05-11T20:54:17.572Z,97347.00
2023-05-11T20:56:43.707Z,97341.00
2023-05-11T21:00:03.527Z,97345.00
2023-05-11T21:01:58.203Z,97336.00
2023-05-11T21:04:24.614Z,97325.00
2023-05-11T21:06:54.070Z,97329.00
2023-05-11T21:09:20.238Z,97340.00
2023-05-11T21:11:47.652Z,97331.00
2023-05-11T21:14:14.369Z,97329.00
2023-05-11T21:16:40.577Z,97322.00
2023-05-11T21:19:07.283Z,97315.00
2023-05-11T21:21:33.693Z,97319.00
2023-05-11T21:24:00.403Z,97321.00
2023-05-11T21:26:26.778Z,97333.00
2023-05-11T21:28:54.322Z,97327.00
2023-05-11T21:31:21.187Z,97326.00
2023-05-11T21:33:47.358Z,97327.00
2023-05-11T21:36:13.514Z,97329.00
2023-05-11T21:38:39.753Z,97322.00
2023-05-11T21:41:07.919Z,97330.00
2023-05-11T21:43:34.133Z,97322.00
2023-05-11T21:46:01.098Z,97332.00
2023-05-11T21:48:28.073Z,97329.00
2023-05-11T21:50:55.103Z,97311.00
2023-05-11T21:53:22.973Z,97316.00
2023-05-11T21:55:49.944Z,97330.00
2023-05-11T21:58:16.412Z,97288.00
2023-05-11T22:00:43.236Z,97326.00
2023-05-11T22:03:09.498Z,97308.00
2023-05-11T22:05:35.728Z,97312.00
2023-05-11T22:08:13.409Z,97286.00
2023-05-11T22:10:42.419Z,97320.00
2023-05-11T22:13:13.866Z,97299.00
2023-05-11T22:15:40.906Z,97285.00
2023-05-11T22:18:07.204Z,97316.00
2023-05-11T22:20:33.555Z,97315.00
2023-05-11T22:22:59.952Z,97308.00
2023-05-11T22:25:27.307Z,97310.00
2023-05-11T22:27:53.566Z,97317.00
2023-05-11T22:30:20.399Z,97305.00
2023-05-11T22:32:46.865Z,97306.00
2023-05-11T22:35:13.383Z,97309.00
2023-05-11T22:37:39.566Z,97301.00
2023-05-11T22:40:06.619Z,97312.00
2023-05-11T22:42:32.933Z,97306.00
2023-05-11T22:44:59.080Z,97307.00
2023-05-11T22:47:25.279Z,97310.00
2023-05-11T22:49:51.508Z,97315.00
2023-05-11T22:52:17.652Z,97309.00
2023-05-11T22:54:44.050Z,97328.00
2023-05-11T22:57:12.714Z,97330.00
2023-05-11T22:59:39.321Z,97338.00
2023-05-11T23:02:05.673Z,97330.00
2023-05-11T23:04:31.888Z,97321.00
2023-05-11T23:06:59.054Z,97313.00
2023-05-11T23:09:25.897Z,97303.00
2023-05-11T23:11:52.455Z,97326.00
2023-05-11T23:14:18.637Z,97327.00
2023-05-11T23:16:45.314Z,97326.00
2023-05-11T23:19:11.714Z,97326.00
2023-05-11T23:21:38.292Z,97316.00
2023-05-11T23:24:06.621Z,97317.00
2023-05-11T23:26:33.003Z,97323.00
2023-05-11T23:28:59.495Z,97319.00
2023-05-11T23:31:26.961Z,97294.00
2023-05-11T23:33:53.386Z,97325.00
2023-05-11T23:36:19.873Z,97305.00
2023-05-11T23:38:46.070Z,97302.00
2023-05-11T23:41:12.250Z,97292.00
2023-05-11T23:43:38.681Z,97311.00
2023-05-11T23:46:04.892Z,97309.00
2023-05-11T23:48:31.862Z,97305.00
2023-05-11T23:50:58.073Z,97299.00
2023-05-11T23:53:25.454Z,97319.00
2023-05-11T23:55:51.658Z,97312.00
2023-05-11T23:58:17.837Z,97303.00
